createdAt,value
2023-03-11T00:00:05.185Z,6.32
2023-03-11T00:02:31.408Z,6.27
2023-03-11T00:04:57.708Z,6.24
2023-03-11T00:07:24.021Z,6.21
2023-03-11T00:09:50.288Z,6.19
2023-03-11T00:12:16.563Z,6.19
2023-03-11T00:14:43.097Z,6.17
2023-03-11T00:17:09.425Z,6.20
2023-03-11T00:19:35.746Z,6.20
2023-03-11T00:22:02.143Z,6.18
2023-03-11T00:24:28.522Z,6.19
2023-03-11T00:26:55.683Z,6.18
2023-03-11T00:29:22.039Z,6.14
2023-03-11T00:31:48.262Z,6.11
2023-03-11T00:34:14.546Z,6.08
2023-03-11T00:36:40.767Z,6.08
2023-03-11T00:39:07.018Z,6.09
2023-03-11T00:41:33.989Z,6.11
2023-03-11T00:44:00.344Z,6.13
2023-03-11T00:46:26.897Z,6.16
2023-03-11T00:48:53.182Z,6.17
2023-03-11T00:51:19.492Z,6.19
2023-03-11T00:53:45.895Z,6.21
2023-03-11T00:56:13.740Z,6.20
2023-03-11T00:58:42.259Z,6.18
2023-03-11T01:01:16.131Z,6.14
2023-03-11T01:03:43.255Z,6.11
2023-03-11T01:06:10.625Z,6.07
2023-03-11T01:08:37.030Z,6.05
2023-03-11T01:11:04.356Z,6.07
2023-03-11T01:13:31.045Z,6.08
2023-03-11T01:15:57.440Z,6.09
2023-03-11T01:18:24.329Z,6.08
2023-03-11T01:20:51.062Z,6.11
2023-03-11T01:23:18.526Z,6.15
2023-03-11T01:25:44.816Z,6.19
2023-03-11T01:28:11.543Z,6.28
2023-03-11T01:30:38.800Z,6.34
2023-03-11T01:33:06.124Z,6.38
2023-03-11T01:35:33.037Z,6.43
2023-03-11T01:37:59.361Z,6.47
2023-03-11T01:40:28.598Z,6.50
2023-03-11T01:42:56.128Z,6.54
2023-03-11T01:45:42.724Z,6.56
2023-03-11T01:48:10.912Z,6.59
2023-03-11T01:50:40.631Z,6.62
2023-03-11T01:53:07.676Z,6.65
2023-03-11T01:55:34.048Z,6.69
2023-03-11T01:58:02.081Z,6.71
2023-03-11T02:00:28.504Z,6.76
2023-03-11T02:02:57.007Z,6.79
2023-03-11T02:05:24.014Z,6.82
2023-03-11T02:07:51.954Z,6.85
2023-03-11T02:10:19.096Z,6.88
2023-03-11T02:12:46.171Z,6.90
2023-03-11T02:15:21.582Z,6.93
2023-03-11T02:17:48.301Z,6.93
2023-03-11T02:20:14.662Z,6.93
2023-03-11T02:22:42.071Z,6.92
2023-03-11T02:25:11.496Z,6.91
2023-03-11T02:27:41.042Z,6.90
2023-03-11T02:30:09.660Z,6.91
2023-03-11T02:32:36.754Z,6.91
2023-03-11T02:35:03.660Z,6.90
2023-03-11T02:37:30.548Z,6.90
2023-03-11T02:40:21.271Z,6.91
2023-03-11T02:42:52.326Z,6.92
2023-03-11T02:45:20.942Z,6.93
2023-03-11T02:47:48.349Z,6.92
2023-03-11T02:50:15.665Z,6.91
2023-03-11T02:52:42.464Z,6.91
2023-03-11T02:55:09.503Z,6.90
2023-03-11T02:57:35.875Z,6.89
2023-03-11T03:00:03.742Z,6.87
2023-03-11T03:02:29.976Z,6.84
2023-03-11T03:04:56.480Z,6.82
2023-03-11T03:07:23.000Z,6.82
2023-03-11T03:09:49.409Z,6.80
2023-03-11T03:12:15.854Z,6.78
2023-03-11T03:14:42.250Z,6.77
2023-03-11T03:17:09.406Z,6.76
2023-03-11T03:19:35.772Z,6.73
2023-03-11T03:22:02.171Z,6.71
2023-03-11T03:24:28.577Z,6.67
2023-03-11T03:26:55.062Z,6.62
2023-03-11T03:29:21.350Z,6.57
2023-03-11T03:31:48.381Z,6.51
2023-03-11T03:34:15.142Z,6.47
2023-03-11T03:36:41.427Z,6.42
2023-03-11T03:39:07.875Z,6.36
2023-03-11T03:41:36.015Z,6.27
2023-03-11T03:44:03.078Z,6.20
2023-03-11T03:46:29.821Z,6.13
2023-03-11T03:48:57.542Z,6.07
2023-03-11T03:51:24.454Z,5.99
2023-03-11T03:54:07.688Z,5.90
2023-03-11T03:56:34.995Z,5.80
2023-03-11T03:59:01.634Z,5.71
2023-03-11T04:01:33.445Z,5.64
2023-03-11T04:04:00.007Z,5.59
2023-03-11T04:06:26.994Z,5.55
2023-03-11T04:08:57.308Z,5.50
2023-03-11T04:11:27.614Z,5.45
2023-03-11T04:13:54.059Z,5.39
2023-03-11T04:16:21.916Z,5.34
2023-03-11T04:18:48.536Z,5.29
2023-03-11T04:21:14.976Z,5.24
2023-03-11T04:23:42.099Z,5.20
2023-03-11T04:26:08.492Z,5.17
2023-03-11T04:28:35.997Z,5.15
2023-03-11T04:31:03.114Z,5.14
2023-03-11T04:33:30.291Z,5.12
2023-03-11T04:35:57.202Z,5.10
2023-03-11T04:38:23.720Z,5.06
2023-03-11T04:40:50.602Z,5.02
2023-03-11T04:43:17.183Z,5.00
2023-03-11T04:45:44.914Z,4.97
2023-03-11T04:48:11.675Z,4.93
2023-03-11T04:50:38.754Z,4.87
2023-03-11T04:53:05.101Z,4.82
2023-03-11T04:55:31.425Z,4.76
2023-03-11T04:57:58.181Z,4.68
2023-03-11T05:00:24.735Z,4.61
2023-03-11T05:02:56.692Z,4.53
2023-03-11T05:05:23.691Z,4.48
2023-03-11T05:07:50.072Z,4.43
2023-03-11T05:10:16.672Z,4.41
2023-03-11T05:12:43.109Z,4.40
2023-03-11T05:15:10.187Z,4.39
2023-03-11T05:17:36.899Z,4.33
2023-03-11T05:20:03.873Z,4.26
2023-03-11T05:22:32.285Z,4.23
2023-03-11T05:24:58.837Z,4.18
2023-03-11T05:27:25.168Z,4.12
2023-03-11T05:29:53.657Z,4.08
2023-03-11T07:21:58.094Z,2.65
2023-03-11T07:24:24.386Z,2.63
2023-03-11T07:26:50.623Z,2.56
2023-03-11T07:29:17.237Z,2.47
2023-03-11T07:31:43.730Z,2.44
2023-03-11T07:34:11.446Z,2.42
2023-03-11T07:36:41.249Z,2.40
2023-03-11T07:39:10.227Z,2.40
2023-03-11T07:41:36.797Z,2.47
2023-03-11T07:44:03.811Z,2.49
2023-03-11T07:46:30.872Z,2.46
2023-03-11T07:48:57.284Z,2.42
2023-03-11T07:51:28.579Z,2.38
2023-03-11T07:53:55.753Z,2.30
2023-03-11T07:56:22.876Z,2.22
2023-03-11T07:58:49.526Z,2.25
2023-03-11T08:01:17.363Z,2.30
2023-03-11T08:03:45.156Z,2.34
2023-03-11T08:06:12.406Z,2.39
2023-03-11T08:08:39.222Z,2.43
2023-03-11T08:11:05.973Z,2.47
2023-03-11T08:13:32.611Z,2.48
2023-03-11T08:15:59.098Z,2.49
2023-03-11T08:18:25.526Z,2.48
2023-03-11T08:20:51.847Z,2.48
2023-03-11T08:23:18.249Z,2.41
2023-03-11T08:25:44.507Z,2.33
2023-03-11T08:28:11.122Z,2.27
2023-03-11T08:30:37.366Z,2.30
2023-03-11T08:33:03.787Z,2.30
2023-03-11T08:35:30.847Z,2.32
2023-03-11T08:37:57.216Z,2.47
2023-03-11T08:40:23.586Z,2.48
2023-03-11T08:42:50.168Z,2.42
2023-03-11T08:45:16.527Z,2.28
2023-03-11T08:47:42.852Z,2.20
2023-03-11T08:50:14.683Z,2.10
2023-03-11T08:52:41.356Z,2.02
2023-03-11T08:55:08.144Z,2.01
2023-03-11T08:57:34.545Z,2.07
2023-03-11T09:00:00.851Z,2.13
2023-03-11T09:02:27.222Z,2.18
2023-03-11T09:04:53.945Z,2.21
2023-03-11T09:07:20.364Z,2.28
2023-03-11T09:09:46.747Z,2.41
2023-03-11T09:12:13.542Z,2.49
2023-03-11T09:14:43.180Z,2.53
2023-03-11T09:17:09.955Z,2.61
2023-03-11T09:19:37.314Z,2.66
2023-03-11T09:22:04.349Z,2.68
2023-03-11T09:24:34.439Z,2.66
2023-03-11T09:27:01.097Z,2.68
2023-03-11T09:29:27.616Z,2.63
2023-03-11T09:31:54.142Z,2.53
2023-03-11T09:34:20.681Z,2.52
2023-03-11T09:36:46.958Z,2.45
2023-03-11T09:39:13.356Z,2.37
2023-03-11T09:41:57.924Z,2.33
2023-03-11T09:44:25.272Z,2.25
2023-03-11T09:46:51.848Z,2.21
2023-03-11T09:49:27.265Z,2.12
2023-03-11T09:51:59.366Z,2.02
2023-03-11T09:54:25.938Z,1.93
2023-03-11T09:56:52.663Z,1.83
2023-03-11T09:59:26.140Z,1.74
2023-03-11T10:01:52.596Z,1.69
2023-03-11T10:04:22.689Z,1.67
2023-03-11T10:06:49.089Z,1.61
2023-03-11T10:09:30.502Z,1.61
2023-03-11T10:12:15.827Z,1.56
2023-03-11T10:14:48.415Z,1.55
2023-03-11T10:17:17.707Z,1.59
2023-03-11T10:19:50.339Z,1.59
2023-03-11T10:22:24.633Z,1.64
2023-03-11T10:25:02.329Z,1.67
2023-03-11T10:27:31.128Z,1.65
2023-03-11T10:30:09.587Z,1.65
2023-03-11T10:33:05.577Z,1.62
2023-03-11T10:35:35.900Z,1.57
2023-03-11T10:38:10.891Z,1.58
2023-03-11T10:40:41.339Z,1.61
2023-03-11T10:43:13.703Z,1.64
2023-03-11T10:45:41.711Z,1.66
2023-03-11T10:48:09.406Z,1.70
2023-03-11T10:50:36.895Z,1.73
2023-03-11T10:53:14.534Z,1.75
2023-03-11T10:55:46.256Z,1.78
2023-03-11T10:58:14.104Z,1.82
2023-03-11T11:00:40.433Z,1.88
2023-03-11T11:03:13.850Z,1.95
2023-03-11T11:05:40.255Z,1.99
2023-03-11T11:08:06.526Z,2.03
2023-03-11T11:10:33.664Z,2.00
2023-03-11T11:13:12.224Z,1.99
2023-03-11T11:15:50.829Z,1.98
2023-03-11T11:18:22.950Z,2.01
2023-03-11T11:20:57.643Z,2.04
2023-03-11T11:23:25.642Z,2.04
2023-03-11T11:25:59.152Z,2.02
2023-03-11T11:28:25.858Z,1.98
2023-03-11T11:30:54.327Z,1.98
2023-03-11T11:33:22.551Z,1.95
2023-03-11T11:35:50.761Z,1.85
2023-03-11T11:38:17.298Z,1.73
2023-03-11T11:40:43.702Z,1.62
2023-03-11T11:43:17.846Z,1.57
2023-03-11T11:45:56.839Z,1.57
2023-03-11T11:48:31.624Z,1.56
2023-03-11T11:50:59.660Z,1.51
2023-03-11T11:53:41.552Z,1.39
2023-03-11T11:56:08.696Z,1.37
2023-03-11T11:58:35.381Z,1.39
2023-03-11T12:01:24.708Z,1.37
2023-03-11T12:03:57.263Z,1.36
2023-03-11T12:06:34.873Z,1.27
2023-03-11T12:09:18.196Z,1.26
2023-03-11T12:11:54.307Z,1.35
2023-03-11T12:14:40.834Z,1.39
2023-03-11T12:17:08.267Z,1.38
2023-03-11T12:19:39.314Z,1.36
2023-03-11T12:22:05.568Z,1.34
2023-03-11T12:24:32.576Z,1.32
2023-03-11T12:27:01.639Z,1.32
2023-03-11T12:29:30.833Z,1.33
2023-03-11T12:31:59.788Z,1.35
2023-03-11T12:34:27.714Z,1.27
2023-03-11T12:36:56.016Z,1.15
2023-03-11T12:39:26.652Z,1.08
2023-03-11T12:42:11.987Z,1.09
2023-03-11T12:44:39.362Z,1.20
2023-03-11T12:47:11.637Z,1.24
2023-03-11T12:49:38.000Z,1.28
2023-03-11T12:52:07.231Z,1.32
2023-03-11T12:54:36.456Z,1.29
2023-03-11T12:57:12.519Z,1.20
2023-03-11T12:59:38.992Z,1.13
2023-03-11T13:02:24.267Z,1.09
2023-03-11T13:04:57.767Z,1.01
2023-03-11T13:07:36.471Z,1.01
2023-03-11T13:10:03.653Z,1.02
2023-03-11T13:12:41.114Z,0.98
2023-03-11T13:15:19.871Z,1.08
2023-03-11T13:17:58.469Z,1.21
2023-03-11T13:20:39.992Z,1.21
2023-03-11T13:23:26.512Z,1.12
2023-03-11T13:26:05.021Z,1.05
2023-03-11T13:28:48.425Z,0.95
2023-03-11T13:31:34.103Z,0.87
2023-03-11T13:34:10.330Z,0.86
2023-03-11T13:36:42.697Z,0.77
2023-03-11T13:39:11.886Z,0.72
2023-03-11T13:41:41.312Z,0.71
2023-03-11T13:44:14.145Z,0.65
2023-03-11T13:46:41.752Z,0.54
2023-03-11T13:49:31.088Z,0.47
2023-03-11T13:51:58.122Z,0.42
2023-03-11T13:54:43.583Z,0.38
2023-03-11T13:57:22.272Z,0.35
2023-03-11T13:59:52.456Z,0.33
2023-03-11T14:02:19.929Z,0.32
2023-03-11T14:04:50.667Z,0.30
2023-03-11T14:07:28.078Z,0.26
2023-03-11T14:10:13.357Z,0.24
2023-03-11T14:12:40.255Z,0.20
2023-03-11T14:15:08.296Z,0.18
2023-03-11T14:17:34.608Z,0.15
2023-03-11T14:20:01.750Z,0.15
2023-03-11T14:22:28.404Z,0.15
2023-03-11T14:24:56.934Z,0.14
2023-03-11T14:27:23.460Z,0.13
2023-03-11T14:29:49.881Z,0.14
2023-03-11T14:32:30.070Z,0.15
2023-03-11T14:34:56.778Z,0.17
2023-03-11T14:37:25.948Z,0.19
2023-03-11T14:39:54.101Z,0.21
2023-03-11T14:42:26.873Z,0.17
2023-03-11T14:45:09.866Z,0.14
2023-03-11T14:47:42.439Z,0.12
2023-03-11T14:50:15.947Z,0.12
2023-03-11T14:52:48.135Z,0.10
2023-03-11T14:55:17.724Z,0.07
2023-03-11T14:57:46.977Z,0.07
2023-03-11T15:00:18.880Z,0.07
2023-03-11T15:02:51.703Z,0.11
2023-03-11T15:05:22.431Z,0.14
2023-03-11T15:07:51.145Z,0.14
2023-03-11T15:10:17.615Z,0.14
2023-03-11T15:12:44.409Z,0.14
2023-03-11T15:15:21.163Z,0.11
2023-03-11T15:17:54.991Z,0.09
2023-03-11T15:20:32.527Z,0.11
2023-03-11T15:23:01.632Z,0.08
2023-03-11T15:25:30.306Z,0.07
2023-03-11T15:27:56.730Z,0.03
2023-03-11T15:30:27.828Z,0.02
2023-03-11T15:32:55.883Z,0.05
2023-03-11T15:35:27.564Z,0.05
2023-03-11T15:38:12.399Z,0.06
2023-03-11T15:40:45.591Z,0.09
2023-03-11T15:43:15.075Z,0.16
2023-03-11T15:45:42.292Z,0.20
2023-03-11T15:48:09.759Z,0.22
2023-03-11T15:50:50.733Z,0.23
2023-03-11T15:53:20.066Z,0.25
2023-03-11T15:55:46.914Z,0.23
2023-03-11T15:58:17.635Z,0.22
2023-03-11T16:00:50.611Z,0.20
2023-03-11T16:03:17.012Z,0.18
2023-03-11T16:05:43.769Z,0.16
2023-03-11T16:08:10.765Z,0.12
2023-03-11T16:10:39.022Z,0.08
2023-03-11T16:13:06.383Z,0.03
2023-03-11T16:15:34.514Z,-0.01
2023-03-11T16:18:01.997Z,-0.05
2023-03-11T16:20:30.335Z,-0.07
2023-03-11T16:22:58.290Z,-0.08
2023-03-11T16:25:32.966Z,-0.11
2023-03-11T16:28:01.358Z,-0.16
2023-03-11T16:30:29.019Z,-0.19
2023-03-11T16:32:55.658Z,-0.22
2023-03-11T16:35:23.591Z,-0.24
2023-03-11T16:37:50.199Z,-0.26
2023-03-11T16:40:18.071Z,-0.27
2023-03-11T16:42:44.722Z,-0.29
2023-03-11T16:45:12.151Z,-0.34
2023-03-11T16:47:38.508Z,-0.39
2023-03-11T16:50:05.188Z,-0.41
2023-03-11T16:52:31.639Z,-0.44
2023-03-11T16:54:57.950Z,-0.47
2023-03-11T16:57:24.360Z,-0.50
2023-03-11T16:59:50.769Z,-0.50
2023-03-11T17:02:17.246Z,-0.51
2023-03-11T17:04:43.830Z,-0.49
2023-03-11T17:07:10.181Z,-0.49
2023-03-11T17:09:36.959Z,-0.49
2023-03-11T17:12:04.052Z,-0.50
2023-03-11T17:14:30.526Z,-0.51
2023-03-11T17:16:56.981Z,-0.53
2023-03-11T17:19:23.916Z,-0.53
2023-03-11T17:21:50.954Z,-0.54
2023-03-11T17:24:17.308Z,-0.55
2023-03-11T17:26:44.574Z,-0.56
2023-03-11T17:29:10.892Z,-0.60
2023-03-11T17:31:37.229Z,-0.63
2023-03-11T17:34:03.874Z,-0.65
2023-03-11T17:36:30.244Z,-0.66
2023-03-11T17:38:56.547Z,-0.68
2023-03-11T17:41:23.585Z,-0.69
2023-03-11T17:43:51.551Z,-0.68
2023-03-11T17:46:19.098Z,-0.69
2023-03-11T17:48:46.875Z,-0.70
2023-03-11T17:51:14.774Z,-0.68
2023-03-11T17:53:44.551Z,-0.67
2023-03-11T17:56:13.469Z,-0.66
2023-03-11T17:58:40.115Z,-0.67
2023-03-11T18:01:08.208Z,-0.68
2023-03-11T18:03:35.475Z,-0.66
2023-03-11T18:06:03.715Z,-0.65
2023-03-11T18:08:30.590Z,-0.64
2023-03-11T18:11:01.563Z,-0.62
2023-03-11T18:13:28.288Z,-0.60
2023-03-11T18:16:03.990Z,-0.60
2023-03-11T18:18:31.186Z,-0.60
2023-03-11T18:21:05.140Z,-0.60
2023-03-11T18:23:32.098Z,-0.59
2023-03-11T18:25:59.548Z,-0.58
2023-03-11T18:28:25.927Z,-0.57
2023-03-11T18:30:52.259Z,-0.61
2023-03-11T18:33:19.351Z,-0.64
2023-03-11T18:35:46.573Z,-0.64
2023-03-11T18:38:12.984Z,-0.66
2023-03-11T18:40:39.369Z,-0.67
2023-03-11T18:43:05.842Z,-0.70
2023-03-11T18:45:32.376Z,-0.71
2023-03-11T18:47:58.752Z,-0.72
2023-03-11T18:50:25.124Z,-0.73
2023-03-11T18:52:52.149Z,-0.74
2023-03-11T18:55:18.895Z,-0.73
2023-03-11T18:57:45.926Z,-0.75
2023-03-11T19:00:14.796Z,-0.75
2023-03-11T19:02:42.359Z,-0.76
2023-03-11T19:05:10.070Z,-0.76
2023-03-11T19:07:37.380Z,-0.76
2023-03-11T19:10:03.963Z,-0.78
2023-03-11T19:12:30.437Z,-0.81
2023-03-11T19:14:56.740Z,-0.85
2023-03-11T19:17:23.229Z,-0.88
2023-03-11T19:19:49.584Z,-0.93
2023-03-11T19:22:16.089Z,-0.99
2023-03-11T19:24:42.392Z,-1.04
2023-03-11T19:27:08.725Z,-1.09
2023-03-11T19:29:36.118Z,-1.15
2023-03-11T19:32:03.593Z,-1.19
2023-03-11T19:34:30.243Z,-1.22
2023-03-11T19:36:57.129Z,-1.25
2023-03-11T19:39:23.570Z,-1.28
2023-03-11T19:41:50.245Z,-1.32
2023-03-11T19:44:16.772Z,-1.35
2023-03-11T19:46:43.209Z,-1.39
2023-03-11T19:49:09.599Z,-1.44
2023-03-11T19:51:49.206Z,-1.46
2023-03-11T19:54:17.244Z,-1.51
2023-03-11T19:56:44.291Z,-1.54
2023-03-11T19:59:10.858Z,-1.58
2023-03-11T20:01:37.474Z,-1.60
2023-03-11T20:04:04.532Z,-1.58
2023-03-11T20:06:31.867Z,-1.56
2023-03-11T20:08:58.406Z,-1.51
2023-03-11T20:11:24.804Z,-1.47
2023-03-11T20:13:51.265Z,-1.43
2023-03-11T20:16:19.068Z,-1.39
2023-03-11T20:18:49.722Z,-1.33
2023-03-11T20:21:16.571Z,-1.29
2023-03-11T20:23:43.139Z,-1.24
2023-03-11T20:26:13.877Z,-1.18
2023-03-11T20:28:40.506Z,-1.14
2023-03-11T20:31:14.762Z,-1.11
2023-03-11T20:33:41.389Z,-1.09
2023-03-11T20:36:12.909Z,-1.09
2023-03-11T20:38:39.836Z,-1.10
2023-03-11T20:41:07.253Z,-1.12
2023-03-11T20:43:33.955Z,-1.12
2023-03-11T20:46:01.470Z,-1.12
2023-03-11T20:48:28.115Z,-1.12
2023-03-11T20:50:54.603Z,-1.10
2023-03-11T20:53:22.350Z,-1.09
2023-03-11T20:55:48.989Z,-1.09
2023-03-11T20:58:15.445Z,-1.08
2023-03-11T21:00:41.928Z,-1.10
2023-03-11T21:03:08.397Z,-1.10
2023-03-11T21:05:35.669Z,-1.08
2023-03-11T21:08:02.862Z,-1.07
2023-03-11T21:10:29.958Z,-1.08
2023-03-11T21:12:56.344Z,-1.10
2023-03-11T21:15:23.109Z,-1.12
2023-03-11T21:17:49.830Z,-1.15
2023-03-11T21:20:16.489Z,-1.20
2023-03-11T21:22:45.056Z,-1.24
2023-03-11T21:25:12.385Z,-1.28
2023-03-11T21:27:39.064Z,-1.31
2023-03-11T21:30:06.885Z,-1.33
2023-03-11T21:32:33.346Z,-1.34
2023-03-11T21:35:00.851Z,-1.33
2023-03-11T21:37:27.948Z,-1.34
2023-03-11T21:39:54.840Z,-1.34
2023-03-11T21:42:21.374Z,-1.33
2023-03-11T21:44:47.754Z,-1.32
2023-03-11T21:47:14.320Z,-1.32
2023-03-11T21:49:40.823Z,-1.31
2023-03-11T21:52:07.577Z,-1.31
2023-03-11T21:54:34.262Z,-1.30
2023-03-11T21:57:00.688Z,-1.29
2023-03-11T21:59:27.138Z,-1.27
2023-03-11T22:01:53.860Z,-1.25
2023-03-11T22:04:20.349Z,-1.22
2023-03-11T22:06:47.377Z,-1.21
2023-03-11T22:09:14.022Z,-1.23
2023-03-11T22:11:40.306Z,-1.25
2023-03-11T22:14:06.852Z,-1.28
2023-03-11T22:16:34.148Z,-1.29
2023-03-11T22:19:00.797Z,-1.28
2023-03-11T22:21:27.416Z,-1.27
2023-03-11T22:23:54.010Z,-1.25
2023-03-11T22:26:20.442Z,-1.24
2023-03-11T22:28:47.214Z,-1.23
2023-03-11T22:31:14.375Z,-1.23
2023-03-11T22:33:40.821Z,-1.21
2023-03-11T22:36:07.631Z,-1.20
2023-03-11T22:38:34.272Z,-1.19
2023-03-11T22:41:03.065Z,-1.18
2023-03-11T22:43:29.522Z,-1.17
2023-03-11T22:45:56.114Z,-1.17
2023-03-11T22:48:22.431Z,-1.17
2023-03-11T22:50:48.838Z,-1.20
2023-03-11T22:53:15.427Z,-1.20
2023-03-11T22:55:42.713Z,-1.19
2023-03-11T22:58:09.605Z,-1.19
2023-03-11T23:00:36.317Z,-1.20
2023-03-11T23:03:02.721Z,-1.20
2023-03-11T23:05:29.692Z,-1.21
2023-03-11T23:07:55.976Z,-1.25
2023-03-11T23:10:22.318Z,-1.29
2023-03-11T23:12:48.611Z,-1.37
2023-03-11T23:15:16.504Z,-1.43
2023-03-11T23:17:42.987Z,-1.52
2023-03-11T23:20:12.064Z,-1.61
2023-03-11T23:22:39.509Z,-1.68
2023-03-11T23:25:07.742Z,-1.75
2023-03-11T23:27:34.010Z,-1.81
2023-03-11T23:30:00.302Z,-1.87
2023-03-11T23:32:26.621Z,-1.93
2023-03-11T23:34:52.882Z,-1.99
2023-03-11T23:37:19.186Z,-2.04
2023-03-11T23:39:45.477Z,-2.08
2023-03-11T23:42:24.449Z,-2.12
2023-03-11T23:44:52.256Z,-2.18
2023-03-11T23:47:18.566Z,-2.23
2023-03-11T23:49:44.807Z,-2.27
2023-03-11T23:52:11.249Z,-2.29
2023-03-11T23:54:37.558Z,-2.28
2023-03-11T23:57:03.802Z,-2.26
2023-03-11T23:59:33.035Z,-2.24
